Time;durP1;ratioP1;P1;durP2;ratioP2;P2;SDS_P1;SDS_P2;PMS_P1;PMS_P2;Temp;Humidity;BMP_temperature;BMP_pressure;BME280_temperature;BME280_humidity;BME280_pressure;Samples;Min_cycle;Max_cycle;Signal;HPM_P1;HPM_P2
2022/12/17 13:06:06;;;;;;;37.97;27.52;;;;;;;10.91;100.00;100599.88;4999253;28;20064;-76
2022/12/17 13:08:32;;;;;;;36.80;27.27;;;;;;;10.07;100.00;100475.50;4986739;28;20046;-76
2022/12/17 13:11:10;;;;;;;36.67;27.40;;;;;;;10.70;100.00;100580.63;4982002;28;20080;-76
2022/12/17 13:13:54;;;;;;;38.85;28.70;;;;;;;10.57;100.00;100600.69;4998769;28;20037;-76
2022/12/17 13:16:29;;;;;;;46.22;29.90;;;;;;;10.44;100.00;100601.53;4982303;28;20042;-77
2022/12/17 13:19:20;;;;;;;40.10;28.13;;;;;;;9.57;100.00;100462.19;4973687;28;20037;-78
2022/12/17 13:21:46;;;;;;;47.05;29.35;;;;;;;10.57;100.00;100602.44;4986283;28;20133;-76
2022/12/17 13:24:22;;;;;;;36.80;26.65;;;;;;;10.36;100.00;100590.13;4993862;28;20038;-77
2022/12/17 13:26:47;;;;;;;44.60;30.73;;;;;;;9.42;100.00;100482.19;4999011;28;20046;-76
2022/12/17 13:29:28;;;;;;;44.90;30.50;;;;;;;10.01;100.00;100595.19;5001420;28;20073;-75
2022/12/17 13:31:59;;;;;;;39.88;28.30;;;;;;;9.99;100.00;100633.63;5003988;28;20498;-77
2022/12/17 13:34:45;;;;;;;42.17;28.63;;;;;;;9.65;100.00;100570.53;5004010;28;20038;-78
2022/12/17 13:37:19;;;;;;;41.85;29.58;;;;;;;10.07;100.00;100655.53;5001673;28;20033;-76
2022/12/17 13:40:00;;;;;;;42.15;29.20;;;;;;;9.60;100.00;100546.03;5004557;28;20156;-76
2022/12/17 13:42:26;;;;;;;48.10;30.15;;;;;;;9.34;100.00;100532.75;4998025;28;20053;-75
2022/12/17 13:44:52;;;;;;;45.40;28.42;;;;;;;9.66;100.00;100620.28;5001703;28;20046;-77
2022/12/17 13:47:25;;;;;;;39.55;27.92;;;;;;;9.61;100.00;100615.91;5004331;28;20037;-77
2022/12/17 13:49:53;;;;;;;35.65;26.98;;;;;;;9.79;100.00;100636.13;5005086;28;20085;-76
2022/12/17 13:52:22;;;;;;;33.70;24.88;;;;;;;9.69;100.00;100661.38;5004915;28;20119;-77
2022/12/17 13:54:47;;;;;;;35.10;27.48;;;;;;;9.01;100.00;100557.81;4993484;28;20123;-78
2022/12/17 13:57:24;;;;;;;39.65;25.95;;;;;;;8.91;100.00;100528.06;4999737;28;20050;-75
2022/12/17 13:59:53;;;;;;;36.17;27.15;;;;;;;9.73;100.00;100653.53;5004129;28;20099;-78
2022/12/17 14:02:27;;;;;;;37.35;27.00;;;;;;;9.83;100.00;100659.75;5002099;28;20050;-77
2022/12/17 14:04:54;;;;;;;44.13;29.95;;;;;;;9.29;100.00;100585.09;5002617;28;20096;-77
2022/12/17 14:07:21;;;;;;;51.13;34.20;;;;;;;9.64;100.00;100657.84;5001858;28;20620;-78
2022/12/17 14:09:48;;;;;;;49.47;32.92;;;;;;;9.55;100.00;100645.53;5002190;28;20034;-78
2022/12/17 14:12:20;;;;;;;41.35;32.85;;;;;;;9.51;100.00;100628.06;5000286;28;20038;-77
2022/12/17 14:14:54;;;;;;;43.33;31.48;;;;;;;9.54;100.00;100653.41;4992928;28;20073;-78
2022/12/17 14:17:44;;;;;;;46.28;34.58;;;;;;;9.59;100.00;100656.94;5000162;28;20129;-78
2022/12/17 14:20:13;;;;;;;45.90;32.72;;;;;;;9.32;100.00;100634.91;4975122;28;20755;-79
2022/12/17 14:22:41;;;;;;;50.70;35.40;;;;;;;9.50;100.00;100676.06;4985023;28;20454;-79
2022/12/17 14:25:17;;;;;;;53.22;34.15;;;;;;;9.11;100.00;100601.53;4984665;28;20053;-77
2022/12/17 14:28:01;;;;;;;52.92;32.35;;;;;;;9.47;100.00;100692.63;4970432;28;20729;-78
2022/12/17 14:30:39;;;;;;;42.63;31.75;;;;;;;9.43;100.00;100672.50;4969208;28;20387;-78
2022/12/17 14:33:32;;;;;;;50.25;31.73;;;;;;;8.77;100.00;100551.50;4971661;28;20391;-79
2022/12/17 14:36:01;;;;;;;37.65;28.98;;;;;;;8.90;100.00;100593.47;4985555;28;20042;-79
2022/12/17 14:38:27;;;;;;;40.72;31.20;;;;;;;8.60;100.00;100558.31;4983631;28;20081;-78
2022/12/17 14:40:59;;;;;;;39.40;30.23;;;;;;;8.71;100.00;100605.47;4969314;28;20050;-80
2022/12/17 14:43:28;;;;;;;41.53;31.75;;;;;;;9.07;100.00;100666.06;4988989;28;20034;-81
2022/12/17 14:51:39;;;;;;;41.53;30.45;;;;;;;9.02;100.00;100706.16;4999817;28;20516;-81
2022/12/17 14:54:15;;;;;;;41.85;30.00;;;;;;;9.11;100.00;100718.44;4986757;28;20062;-80
2022/12/17 14:56:41;;;;;;;42.65;30.48;;;;;;;8.69;100.00;100678.75;4995187;28;20088;-79
2022/12/17 14:59:23;;;;;;;39.60;28.83;;;;;;;8.98;100.00;100713.06;5005424;28;20179;-81
2022/12/17 15:01:50;;;;;;;40.30;33.40;;;;;;;8.79;100.00;100692.81;5004782;28;20058;-81
2022/12/17 15:04:16;;;;;;;45.55;30.52;;;;;;;8.04;100.00;100582.88;4989563;28;20100;-79
2022/12/17 15:06:42;;;;;;;38.75;29.40;;;;;;;8.81;100.00;100718.13;4987078;28;20077;-79
2022/12/17 15:09:10;;;;;;;42.40;31.40;;;;;;;8.79;100.00;100717.22;4987360;28;20065;-77
2022/12/17 15:11:36;;;;;;;42.42;31.13;;;;;;;8.31;100.00;100637.28;4998948;28;20568;-78
2022/12/17 15:14:01;;;;;;;36.80;29.38;;;;;;;8.61;100.00;100690.81;5009536;28;20168;-77
2022/12/17 15:16:27;;;;;;;40.85;31.52;;;;;;;8.76;100.00;100718.94;5010440;28;20048;-78
2022/12/17 15:18:52;;;;;;;47.00;31.58;;;;;;;8.76;100.00;100742.47;4982621;28;20768;-80
2022/12/17 15:21:18;;;;;;;51.95;36.00;;;;;;;8.73;100.00;100738.06;5002105;28;20038;-79
2022/12/17 15:23:45;;;;;;;39.72;30.50;;;;;;;8.69;100.00;100756.34;5004327;28;20128;-79
2022/12/17 15:26:11;;;;;;;43.38;33.75;;;;;;;8.10;100.00;100639.56;5003588;28;20046;-77
2022/12/17 15:28:36;;;;;;;50.45;33.95;;;;;;;8.70;100.00;100766.81;5004742;28;20041;-79
2022/12/17 15:31:02;;;;;;;51.05;33.15;;;;;;;8.54;100.00;100738.69;5006649;28;20169;-77
2022/12/17 15:33:28;;;;;;;47.30;33.88;;;;;;;8.31;100.00;100720.94;5007991;28;20516;-79
2022/12/17 15:35:53;;;;;;;43.72;31.65;;;;;;;8.47;100.00;100757.78;4979960;28;20034;-84
2022/12/17 15:38:19;;;;;;;46.22;33.63;;;;;;;8.53;100.00;100763.09;4999116;28;20045;-80
2022/12/17 15:40:44;;;;;;;48.45;33.40;;;;;;;7.77;100.00;100649.59;4996776;28;20038;-76
2022/12/17 15:43:11;;;;;;;48.05;32.38;;;;;;;8.51;100.00;100757.84;5000998;28;20049;-80
2022/12/17 15:45:41;;;;;;;51.63;33.40;;;;;;;7.95;100.00;100666.38;4984147;28;20061;-82
2022/12/17 15:48:07;;;;;;;49.55;33.50;;;;;;;8.57;100.00;100796.25;4976786;28;20046;-81
2022/12/17 15:50:33;;;;;;;48.38;34.83;;;;;;;8.50;100.00;100794.41;4992241;28;20501;-77
2022/12/17 15:52:58;;;;;;;48.50;34.72;;;;;;;8.49;100.00;100782.22;4980231;28;20050;-78
2022/12/17 15:55:24;;;;;;;46.20;33.70;;;;;;;7.77;100.00;100669.59;4964811;28;20082;-80
2022/12/17 15:57:49;;;;;;;51.00;34.80;;;;;;;8.62;100.00;100798.09;4961029;28;20046;-79
2022/12/17 16:00:15;;;;;;;45.58;34.13;;;;;;;8.36;100.00;100747.16;4984010;28;20158;-82
2022/12/17 16:02:40;;;;;;;49.00;34.45;;;;;;;8.41;100.00;100775.13;4990276;28;20030;-80
2022/12/17 16:05:07;;;;;;;51.70;36.83;;;;;;;8.50;100.00;100804.88;4962195;28;20055;-79
2022/12/17 16:07:32;;;;;;;45.35;34.35;;;;;;;8.63;100.00;100814.66;4971084;28;20057;-80
2022/12/17 16:09:58;;;;;;;51.67;33.65;;;;;;;7.83;100.00;100686.22;4972382;28;20141;-77
2022/12/17 16:12:23;;;;;;;51.95;35.50;;;;;;;8.36;100.00;100796.81;4961317;28;21123;-78
2022/12/17 16:14:49;;;;;;;46.67;34.63;;;;;;;8.47;100.00;100829.25;4961501;28;20081;-80
2022/12/17 16:17:14;;;;;;;47.47;34.20;;;;;;;8.42;100.00;100815.22;4979892;28;20470;-81
2022/12/17 16:19:40;;;;;;;51.08;35.15;;;;;;;7.72;100.00;100703.47;4984027;28;20125;-81
2022/12/17 16:22:05;;;;;;;43.28;32.20;;;;;;;8.61;100.00;100838.19;4982901;28;20450;-81
2022/12/17 16:24:31;;;;;;;55.67;36.40;;;;;;;7.99;100.00;100733.53;4965120;28;20779;-83
2022/12/17 16:26:58;;;;;;;51.47;34.65;;;;;;;7.95;100.00;100719.50;4963831;28;20045;-83
2022/12/17 16:29:23;;;;;;;50.85;34.42;;;;;;;7.80;100.00;100698.38;4965609;28;20050;-80
2022/12/17 16:31:49;;;;;;;49.35;34.38;;;;;;;8.48;100.00;100831.03;4952945;28;20055;-78
2022/12/17 16:34:15;;;;;;;53.85;37.47;;;;;;;8.62;100.00;100867.84;4956346;28;20046;-81
2022/12/17 16:36:41;;;;;;;50.58;32.67;;;;;;;8.48;100.00;100814.47;4965658;28;20054;-80
2022/12/17 16:39:06;;;;;;;51.15;37.90;;;;;;;8.61;100.00;100843.41;4978420;28;20046;-82
2022/12/17 16:41:33;;;;;;;45.35;34.33;;;;;;;7.97;100.00;100743.06;4962287;28;20628;-79
2022/12/17 16:43:58;;;;;;;52.40;35.75;;;;;;;8.61;100.00;100884.41;4962350;28;20055;-80
2022/12/17 16:46:33;;;;;;;48.13;34.42;;;;;;;8.66;100.00;100854.84;4961540;28;20116;-82
2022/12/17 16:49:05;;;;;;;49.22;36.28;;;;;;;8.71;100.00;100873.22;4981092;28;20318;-83
2022/12/17 16:51:31;;;;;;;55.35;35.08;;;;;;;8.02;100.00;100767.53;4983858;28;20061;-84
2022/12/17 16:53:58;;;;;;;59.60;39.40;;;;;;;8.51;100.00;100891.22;4982444;28;20061;-82
2022/12/17 16:56:26;;;;;;;52.25;37.50;;;;;;;8.23;100.00;100821.88;4978242;28;20053;-81
2022/12/17 16:58:53;;;;;;;50.15;36.28;;;;;;;7.85;100.00;100769.00;4980252;28;20062;-85
2022/12/17 17:01:20;;;;;;;54.50;37.08;;;;;;;8.68;100.00;100901.06;4983329;28;20049;-80
2022/12/17 17:03:45;;;;;;;54.85;36.70;;;;;;;8.70;100.00;100912.44;4983481;28;20057;-80
2022/12/17 17:06:11;;;;;;;46.38;33.78;;;;;;;8.02;100.00;100785.81;4984791;28;20042;-76
2022/12/17 17:08:37;;;;;;;56.42;38.35;;;;;;;8.84;100.00;100917.03;4981052;28;20148;-80
2022/12/17 17:11:20;;;;;;;52.28;36.15;;;;;;;8.61;100.00;100897.47;4982084;28;20050;-80
2022/12/17 17:13:48;;;;;;;49.90;36.78;;;;;;;8.17;100.00;100829.59;4979169;28;20727;-79
2022/12/17 17:16:14;;;;;;;57.28;37.80;;;;;;;8.85;100.00;100944.97;4977526;28;20133;-80
2022/12/17 17:18:40;;;;;;;55.63;38.67;;;;;;;7.93;100.00;100791.75;4977347;28;20069;-80
2022/12/17 17:21:13;;;;;;;47.63;36.47;;;;;;;8.53;100.00;100912.19;4981011;28;20478;-82
2022/12/17 17:23:40;;;;;;;55.88;39.33;;;;;;;8.60;100.00;100932.34;4981013;28;20042;-81
2022/12/17 17:26:05;;;;;;;52.03;37.25;;;;;;;7.98;100.00;100817.97;4984824;28;20064;-81
2022/12/17 17:28:31;;;;;;;65.13;38.85;;;;;;;8.51;100.00;100926.97;4980470;28;20482;-78
2022/12/17 17:31:05;;;;;;;48.78;35.67;;;;;;;8.03;100.00;100847.69;4962466;28;20545;-78
2022/12/17 17:33:33;;;;;;;48.53;35.92;;;;;;;8.19;100.00;100862.78;4979264;28;20397;-78
2022/12/17 17:36:07;;;;;;;51.83;37.53;;;;;;;8.42;100.00;100918.09;4961643;28;20039;-79
2022/12/17 17:38:33;;;;;;;44.40;33.63;;;;;;;8.57;100.00;100980.25;4962779;28;20129;-77
2022/12/17 17:40:59;;;;;;;50.22;36.38;;;;;;;8.59;100.00;100955.03;4964230;28;20630;-78
2022/12/17 17:43:25;;;;;;;49.15;35.50;;;;;;;7.94;100.00;100840.56;4961472;28;20081;-76
2022/12/17 17:45:52;;;;;;;49.53;35.58;;;;;;;7.82;100.00;100829.91;4965338;28;20669;-76
2022/12/17 17:48:18;;;;;;;43.35;33.40;;;;;;;8.61;100.00;100968.97;4972083;28;20031;-77
2022/12/17 17:50:56;;;;;;;44.72;32.22;;;;;;;8.40;100.00;100945.94;4983604;28;20088;-77
2022/12/17 17:53:21;;;;;;;46.47;31.08;;;;;;;8.47;100.00;100953.91;4991846;28;20053;-75
2022/12/17 17:55:47;;;;;;;46.13;32.60;;;;;;;8.32;100.00;100954.50;4989435;28;20200;-75
2022/12/17 17:58:15;;;;;;;43.50;29.08;;;;;;;8.52;100.00;100989.78;4993004;28;20057;-78
2022/12/17 18:00:40;;;;;;;43.67;31.73;;;;;;;7.57;100.00;100837.28;5001536;28;20085;-77
2022/12/17 18:03:06;;;;;;;39.38;29.35;;;;;;;7.74;100.00;100871.53;4987380;28;20497;-77
2022/12/17 18:05:37;;;;;;;40.45;30.80;;;;;;;8.30;100.00;100953.59;5003304;28;20188;-77
2022/12/17 18:08:02;;;;;;;41.38;31.45;;;;;;;8.31;100.00;100952.72;4989665;28;20502;-79
2022/12/17 18:10:28;;;;;;;41.08;29.88;;;;;;;8.59;100.00;100990.72;4984759;28;20137;-80
2022/12/17 18:15:38;;;;;;;41.65;28.85;;;;;;;7.89;100.00;100876.19;4986424;28;20096;-81
2022/12/17 18:18:03;;;;;;;44.55;30.92;;;;;;;8.24;100.00;100938.66;4982935;28;20494;-76
2022/12/17 18:20:29;;;;;;;38.08;28.23;;;;;;;8.49;100.00;100978.34;4985453;28;20517;-75
2022/12/17 18:22:54;;;;;;;40.58;27.95;;;;;;;8.56;100.00;100986.34;4987452;28;20118;-76
2022/12/17 18:25:20;;;;;;;35.03;27.52;;;;;;;7.61;100.00;100826.06;4990604;28;20549;-76
2022/12/17 18:27:45;;;;;;;36.60;26.17;;;;;;;8.07;100.00;100919.19;4974539;28;20054;-76
2022/12/17 18:30:11;;;;;;;38.08;26.70;;;;;;;8.36;100.00;100988.56;4987200;28;20085;-78
2022/12/17 18:32:38;;;;;;;35.97;26.85;;;;;;;7.59;100.00;100873.88;4981202;28;20501;-75
2022/12/17 18:35:04;;;;;;;41.72;28.73;;;;;;;8.21;100.00;100996.13;4985857;28;20050;-76
2022/12/17 18:37:29;;;;;;;33.97;28.20;;;;;;;8.18;100.00;101009.13;4984273;28;20085;-78
2022/12/17 18:39:55;;;;;;;45.17;31.30;;;;;;;8.30;100.00;101034.63;5004502;28;20131;-76
2022/12/17 18:45:05;;;;;;;56.30;40.05;;;;;;;7.09;100.00;100918.94;5002285;28;20165;-78
2022/12/17 18:47:30;;;;;;;60.05;41.00;;;;;;;7.23;100.00;100997.53;5000461;28;20065;-79
2022/12/17 18:49:56;;;;;;;59.25;42.20;;;;;;;6.97;100.00;100949.97;5002618;28;20129;-79
2022/12/17 18:52:22;;;;;;;74.10;48.03;;;;;;;7.57;100.00;101090.59;4995945;28;20500;-78
2022/12/17 18:54:48;;;;;;;97.60;61.28;;;;;;;7.65;100.00;101101.22;4999300;28;20092;-76
2022/12/17 18:57:13;;;;;;;68.88;41.83;;;;;;;7.37;100.00;101100.59;5001272;28;20042;-76
2022/12/17 18:59:39;;;;;;;67.97;45.95;;;;;;;6.92;100.00;101011.59;4988385;28;20034;-77
2022/12/17 19:02:10;;;;;;;69.93;43.35;;;;;;;7.39;100.00;101092.75;4999222;28;20046;-78
2022/12/17 19:04:35;;;;;;;80.30;47.63;;;;;;;7.00;100.00;101037.88;4999649;28;20050;-78
2022/12/17 19:07:01;;;;;;;71.05;43.15;;;;;;;6.83;100.00;101012.25;4985301;28;20050;-78
2022/12/17 19:09:30;;;;;;;72.47;44.03;;;;;;;6.70;100.00;100989.34;5002205;28;20110;-76
2022/12/17 19:11:56;;;;;;;66.90;39.50;;;;;;;7.62;100.00;101148.16;5006167;28;20416;-77
2022/12/17 19:14:23;;;;;;;62.10;40.22;;;;;;;6.17;100.00;100905.44;5002255;28;20131;-76
2022/12/17 19:16:50;;;;;;;71.65;41.70;;;;;;;6.85;100.00;101013.16;4999550;28;20045;-78
2022/12/17 19:19:17;;;;;;;68.38;39.88;;;;;;;7.69;100.00;101157.91;4998379;28;20164;-78
2022/12/17 19:21:43;;;;;;;70.30;43.50;;;;;;;7.30;100.00;101116.91;5003300;28;20052;-78
2022/12/17 19:24:12;;;;;;;71.00;41.22;;;;;;;6.99;100.00;101052.66;5003471;28;20038;-78
2022/12/17 19:26:37;;;;;;;78.30;45.58;;;;;;;7.60;100.00;101174.22;5005333;28;20042;-78
2022/12/17 19:29:04;;;;;;;63.40;41.38;;;;;;;7.61;100.00;101167.31;5001376;28;20050;-77
2022/12/17 19:31:31;;;;;;;71.70;39.00;;;;;;;7.80;100.00;101205.19;5002736;28;20054;-77
2022/12/17 19:34:04;;;;;;;73.95;40.40;;;;;;;7.00;100.00;101062.25;4985507;28;20068;-76
2022/12/17 19:36:30;;;;;;;;;;;;;;;7.82;100.00;101208.72;5004274;28;20054;-77
2022/12/17 19:38:59;;;;;;;73.88;41.17;;;;;;;7.69;100.00;101188.38;5002244;28;20032;-77
2022/12/17 19:41:26;;;;;;;66.80;41.30;;;;;;;7.05;100.00;101081.50;5002403;28;20085;-78
2022/12/17 19:43:54;;;;;;;63.88;41.92;;;;;;;6.49;100.00;100976.63;5001204;28;20062;-78
2022/12/17 19:46:20;;;;;;;60.58;40.50;;;;;;;7.78;100.00;101223.44;5002312;28;20545;-78
2022/12/17 19:48:47;;;;;;;65.97;41.20;;;;;;;7.69;100.00;101198.81;4992100;28;20061;-78
2022/12/17 19:51:15;;;;;;;65.57;38.85;;;;;;;7.86;100.00;101244.50;4997906;28;20848;-78
2022/12/17 19:53:42;;;;;;;65.28;40.63;;;;;;;7.24;100.00;101132.44;5002787;28;20160;-77
2022/12/17 19:56:21;;;;;;;67.68;41.58;;;;;;;7.86;100.00;101256.69;5003729;28;20054;-78
2022/12/17 19:58:51;;;;;;;64.63;39.00;;;;;;;7.36;100.00;101152.75;5002660;28;20065;-78
2022/12/17 20:01:22;;;;;;;66.80;38.97;;;;;;;7.16;100.00;101134.88;4999831;28;20077;-78
2022/12/17 20:03:48;;;;;;;64.63;39.65;;;;;;;7.78;100.00;101249.56;4988417;28;20392;-77
2022/12/17 20:06:16;;;;;;;66.22;36.85;;;;;;;7.80;100.00;101237.41;5000029;28;20037;-79
2022/12/17 20:08:42;;;;;;;55.72;36.97;;;;;;;7.24;100.00;101148.09;4977486;28;20132;-77
2022/12/17 20:14:12;;;;;;;59.65;39.22;;;;;;;7.87;100.00;101241.06;5001500;28;20576;-80
2022/12/17 20:16:39;;;;;;;74.93;43.93;;;;;;;7.94;100.00;101239.50;5002698;28;20103;-80
2022/12/17 20:19:06;;;;;;;61.78;40.28;;;;;;;6.97;100.00;101078.69;5003681;28;20053;-80
2022/12/17 20:21:32;;;;;;;70.40;44.97;;;;;;;7.89;100.00;101249.84;5000000;28;20527;-80
2022/12/17 20:23:58;;;;;;;69.65;44.50;;;;;;;7.25;100.00;101113.31;4994810;28;20042;-79
2022/12/17 20:26:24;;;;;;;61.30;42.08;;;;;;;7.30;100.00;101118.66;5001860;28;20054;-81
2022/12/17 20:28:50;;;;;;;67.80;41.78;;;;;;;7.46;100.00;101148.63;4997291;28;20493;-81
2022/12/17 20:31:16;;;;;;;60.80;38.42;;;;;;;7.43;100.00;101166.84;5000866;28;20149;-80
2022/12/17 20:33:41;;;;;;;63.53;37.72;;;;;;;7.88;100.00;101228.88;4987731;28;20576;-82
2022/12/17 20:36:13;;;;;;;54.70;38.20;;;;;;;7.19;100.00;101115.78;4982073;28;20034;-77
2022/12/17 20:38:39;;;;;;;57.00;38.70;;;;;;;7.19;100.00;101124.50;5004483;28;20045;-81
2022/12/17 20:41:13;;;;;;;48.28;34.22;;;;;;;7.91;100.00;101242.88;4999502;28;20042;-80
2022/12/17 20:43:39;;;;;;;52.38;32.22;;;;;;;7.57;100.00;101179.38;5000137;28;20831;-77
2022/12/17 20:46:06;;;;;;;51.85;34.30;;;;;;;7.77;100.00;101250.41;4981439;28;20066;-78
2022/12/17 20:48:31;;;;;;;46.20;33.65;;;;;;;7.61;100.00;101229.97;4997278;28;20052;-76
2022/12/17 20:50:57;;;;;;;45.38;33.70;;;;;;;7.70;100.00;101258.03;4998874;28;20030;-76
2022/12/17 20:53:22;;;;;;;40.58;30.70;;;;;;;7.66;100.00;101261.44;4997368;28;20425;-77
2022/12/17 20:56:00;;;;;;;41.10;29.98;;;;;;;7.74;100.00;101260.78;5001015;28;20045;-76
2022/12/17 20:58:26;;;;;;;38.58;29.73;;;;;;;7.30;100.00;101184.78;4991297;28;20560;-76
2022/12/17 21:00:51;;;;;;;36.50;27.80;;;;;;;7.68;100.00;101264.94;5003473;28;20082;-76
2022/12/17 21:03:16;;;;;;;39.50;28.55;;;;;;;7.60;100.00;101244.75;5001483;28;20516;-76
2022/12/17 21:05:42;;;;;;;36.83;25.83;;;;;;;6.83;100.00;101115.72;5004692;28;20033;-76
2022/12/17 21:08:07;;;;;;;37.83;28.52;;;;;;;7.52;100.00;101245.41;5001888;28;20045;-75
2022/12/17 21:10:33;;;;;;;36.63;27.42;;;;;;;6.73;100.00;101114.59;4982114;28;20052;-76
2022/12/17 21:15:49;;;;;;;35.17;24.65;;;;;;;6.47;100.00;101103.44;4998827;28;20077;-76
2022/12/17 21:18:15;;;;;;;28.58;24.13;;;;;;;7.07;100.00;101198.97;4987356;28;20038;-76
2022/12/17 21:20:40;;;;;;;31.67;23.20;;;;;;;6.58;100.00;101101.13;4983932;28;20100;-77
2022/12/17 21:23:06;;;;;;;29.75;22.83;;;;;;;6.28;100.00;101097.72;4999034;28;20573;-81
2022/12/17 21:25:31;;;;;;;30.83;23.88;;;;;;;6.38;100.00;101129.25;4985802;28;20069;-80
2022/12/17 21:27:57;;;;;;;29.88;21.38;;;;;;;7.16;100.00;101248.78;5003642;28;20055;-80
2022/12/17 21:30:22;;;;;;;27.45;21.85;;;;;;;7.07;100.00;101244.22;5004273;28;20046;-80
2022/12/17 21:32:48;;;;;;;28.45;22.20;;;;;;;6.66;100.00;101206.53;5003895;28;20053;-77
2022/12/17 21:35:14;;;;;;;28.70;20.90;;;;;;;6.90;100.00;101229.81;5001572;28;20060;-76
2022/12/17 21:37:40;;;;;;;40.15;22.77;;;;;;;6.24;100.00;101108.00;5002905;28;20081;-80
2022/12/17 21:40:06;;;;;;;26.33;20.10;;;;;;;6.02;100.00;101102.19;5003735;28;20030;-79
2022/12/17 21:45:15;;;;;;;22.52;17.35;;;;;;;6.50;100.00;101203.47;5001204;28;20080;-84
2022/12/17 21:47:41;;;;;;;17.42;15.55;;;;;;;6.56;100.00;101221.03;5000211;28;20141;-79
2022/12/17 21:50:06;;;;;;;20.80;14.77;;;;;;;6.11;100.00;101135.41;5002471;28;20149;-77
2022/12/17 21:52:32;;;;;;;18.13;13.30;;;;;;;6.76;100.00;101258.09;5000035;28;20505;-81
2022/12/17 21:54:57;;;;;;;17.75;14.25;;;;;;;6.74;100.00;101262.38;4985591;28;20065;-80
2022/12/17 21:57:23;;;;;;;21.15;14.82;;;;;;;5.99;100.00;101151.56;4998031;28;20053;-81
2022/12/17 21:59:49;;;;;;;19.23;15.18;;;;;;;6.22;100.00;101238.25;5004908;28;20037;-79
2022/12/17 22:02:14;;;;;;;14.93;7.60;;;;;;;6.36;100.00;101264.75;5002858;28;20069;-82
2022/12/17 22:04:39;;;;;;;17.20;14.27;;;;;;;6.25;100.00;101254.00;4999990;28;22731;-79
2022/12/17 22:07:05;;;;;;;20.48;13.50;;;;;;;6.23;100.00;101270.44;4995044;28;20050;-81
2022/12/17 22:09:30;;;;;;;20.85;15.05;;;;;;;5.35;100.00;101141.69;5009283;28;20054;-80
2022/12/17 22:14:01;;;;;;;13.90;8.43;;;;;;;6.38;100.00;101288.25;4995729;28;20096;-76
2022/12/17 22:14:41;;;;;;;19.42;14.43;;;;;;;5.28;100.00;101138.88;5000143;28;20084;-79
2022/12/17 22:17:07;;;;;;;14.48;7.93;;;;;;;5.29;100.00;101125.03;4984723;28;20137;-78
2022/12/17 22:19:32;;;;;;;19.25;14.82;;;;;;;6.25;100.00;101293.09;4965397;28;20054;-76
2022/12/17 22:21:58;;;;;;;16.15;11.93;;;;;;;5.72;100.00;101208.84;4977089;28;20101;-75
2022/12/17 22:24:24;;;;;;;20.33;14.75;;;;;;;6.14;100.00;101273.63;4965861;28;20030;-77
2022/12/17 22:26:49;;;;;;;21.13;14.90;;;;;;;6.22;100.00;101294.69;4971459;28;20038;-80
2022/12/17 22:32:58;;;;;;;20.40;9.23;;;;;;;5.77;100.00;101219.41;4981880;28;20568;-77
2022/12/17 22:34:46;;;;;;;16.30;8.07;;;;;;;5.37;100.00;101147.84;4979828;28;20116;-77
2022/12/17 22:37:11;;;;;;;13.60;9.45;;;;;;;5.75;100.00;101208.06;4982516;28;20046;-76
2022/12/17 22:39:37;;;;;;;19.60;10.60;;;;;;;6.13;100.00;101296.19;4980770;28;20042;-78
2022/12/17 22:44:46;;;;;;;14.95;10.35;;;;;;;6.07;100.00;101308.13;4986339;28;20757;-78
2022/12/17 22:47:12;;;;;;;22.45;16.75;;;;;;;5.96;100.00;101289.53;4985625;28;20070;-79
2022/12/17 22:49:37;;;;;;;23.00;16.00;;;;;;;5.88;100.00;101298.78;4994401;28;20042;-77
2022/12/17 22:52:03;;;;;;;14.65;10.07;;;;;;;5.86;100.00;101267.47;4995033;28;20432;-77
2022/12/17 22:54:28;;;;;;;20.92;12.88;;;;;;;5.24;100.00;101212.47;4985490;28;20065;-76
2022/12/17 22:56:54;;;;;;;20.38;15.60;;;;;;;5.77;100.00;101289.72;4983381;28;20045;-76
2022/12/17 22:59:19;;;;;;;21.88;11.48;;;;;;;5.38;100.00;101238.94;4999234;28;20041;-76
2022/12/17 23:01:45;;;;;;;18.58;10.63;;;;;;;5.73;100.00;101286.13;4990905;28;20631;-79
2022/12/17 23:04:14;;;;;;;23.52;16.38;;;;;;;5.73;100.00;101304.34;4983636;28;20060;-76
2022/12/17 23:06:43;;;;;;;15.63;9.80;;;;;;;5.65;100.00;101298.00;4986008;28;20049;-76
2022/12/17 23:09:10;;;;;;;17.23;11.88;;;;;;;5.56;100.00;101308.97;4999845;28;20046;-76
2022/12/17 23:11:35;;;;;;;17.90;11.35;;;;;;;4.79;100.00;101163.19;5002605;28;20046;-77
2022/12/17 23:14:06;;;;;;;17.40;10.00;;;;;;;5.02;100.00;101225.56;4989886;28;20053;-76
2022/12/17 23:16:31;;;;;;;17.13;11.75;;;;;;;5.04;100.00;101231.69;4985591;28;20050;-77
2022/12/17 23:18:59;;;;;;;19.77;9.00;;;;;;;4.59;100.00;101177.22;4986087;28;20057;-77
2022/12/17 23:21:25;;;;;;;23.08;17.60;;;;;;;5.35;100.00;101308.22;4992698;28;20034;-77
2022/12/17 23:23:52;;;;;;;17.00;10.38;;;;;;;4.56;100.00;101206.56;5004905;28;20052;-78
2022/12/17 23:26:20;;;;;;;16.10;9.52;;;;;;;4.85;100.00;101251.84;5002288;28;20413;-76
2022/12/17 23:28:46;;;;;;;16.70;10.52;;;;;;;5.06;100.00;101354.88;4986735;28;20050;-78
2022/12/17 23:31:19;;;;;;;20.15;12.95;;;;;;;4.93;100.00;101314.50;4984950;28;20050;-78
2022/12/17 23:33:46;;;;;;;20.25;13.57;;;;;;;5.36;100.00;101370.75;4980278;28;20039;-77
2022/12/17 23:36:14;;;;;;;16.67;11.02;;;;;;;4.62;100.00;101232.78;4980431;28;20045;-76
2022/12/17 23:38:40;;;;;;;19.80;12.10;;;;;;;5.39;100.00;101389.06;4964019;28;20030;-77
2022/12/17 23:41:09;;;;;;;20.75;11.07;;;;;;;4.86;100.00;101264.00;5000929;28;20053;-77
2022/12/17 23:43:35;;;;;;;22.20;11.95;;;;;;;5.36;100.00;101368.16;4977379;28;20450;-76
2022/12/17 23:46:02;;;;;;;20.30;11.35;;;;;;;5.50;100.00;101400.78;4980115;28;20761;-76
2022/12/17 23:48:33;;;;;;;19.25;10.65;;;;;;;5.28;100.00;101361.75;4977050;28;20031;-76
2022/12/17 23:50:59;;;;;;;18.92;12.15;;;;;;;5.16;100.00;101346.59;4980748;28;20042;-77
2022/12/17 23:53:26;;;;;;;23.48;13.35;;;;;;;5.31;100.00;101407.81;4986605;28;20050;-77
2022/12/17 23:55:52;;;;;;;21.88;12.90;;;;;;;4.38;100.00;101313.28;4992874;28;20050;-78
2022/12/17 23:58:18;;;;;;;20.05;12.27;;;;;;;4.82;100.00;101392.13;5003668;28;20401;-76
